createdAt,value
2022-09-23T04:00:30.344Z,100081.91
2022-09-23T04:04:34.223Z,100077.66
2022-09-23T04:08:36.858Z,100075.69
2022-09-23T04:12:39.476Z,100067.38
2022-09-23T04:16:43.413Z,100075.00
2022-09-23T04:20:46.300Z,100066.41
2022-09-23T04:24:49.180Z,100064.16
2022-09-23T04:28:51.690Z,100059.97
2022-09-23T04:32:55.541Z,100060.06
2022-09-23T04:36:58.027Z,100051.03
2022-09-23T04:41:00.528Z,100064.09
2022-09-23T04:45:04.447Z,100063.72
2022-09-23T04:49:08.988Z,100049.22
2022-09-23T04:53:11.478Z,100049.22
2022-09-23T04:57:14.881Z,100053.88
2022-09-23T05:01:19.975Z,100045.31
2022-09-23T05:05:24.183Z,100042.03
2022-09-23T05:09:26.670Z,100045.78
2022-09-23T05:13:29.434Z,100053.25
2022-09-23T05:17:32.104Z,100053.56
2022-09-23T05:21:38.460Z,100046.91
2022-09-23T05:25:42.473Z,100048.66
2022-09-23T05:29:44.966Z,100046.09
2022-09-23T05:33:51.900Z,100041.28
2022-09-23T05:37:55.733Z,100048.56
2022-09-23T05:42:00.110Z,100040.25
2022-09-23T05:46:07.822Z,100044.56
2022-09-23T05:50:11.488Z,100049.16
2022-09-23T05:54:15.348Z,100047.53
2022-09-23T05:58:17.838Z,100043.91
2022-09-23T06:02:20.316Z,100044.00
2022-09-23T06:06:27.835Z,100050.06
2022-09-23T06:10:31.621Z,100041.03
2022-09-23T06:14:34.189Z,100048.41
2022-09-23T06:18:38.928Z,100053.09
2022-09-23T06:22:41.409Z,100049.53
2022-09-23T06:26:45.253Z,100050.44
2022-09-23T06:30:49.472Z,100051.00
2022-09-23T06:34:52.230Z,100047.31
2022-09-23T06:38:54.730Z,100045.94
2022-09-23T06:43:02.722Z,100045.88
2022-09-23T06:47:05.370Z,100031.84
2022-09-23T06:51:08.147Z,100045.66
2022-09-23T06:55:11.309Z,100043.97
2022-09-23T06:59:16.883Z,100044.88
2022-09-23T07:03:19.395Z,100045.22
2022-09-23T07:07:21.960Z,100039.97
2022-09-23T07:11:24.468Z,100046.78
2022-09-23T07:15:28.278Z,100039.41
2022-09-23T07:19:30.747Z,100032.50
2022-09-23T07:23:33.448Z,100034.41
2022-09-23T07:27:35.956Z,100033.94
2022-09-23T07:31:40.249Z,100034.53
2022-09-23T07:35:43.809Z,100027.31
2022-09-23T07:39:46.211Z,100029.06
2022-09-23T07:43:48.920Z,100038.41
2022-09-23T07:47:52.718Z,100031.41
2022-09-23T07:51:55.527Z,100029.16
2022-09-23T07:55:59.356Z,100020.03
2022-09-23T08:00:02.998Z,100015.31
2022-09-23T08:04:17.883Z,100019.75
2022-09-23T08:08:20.343Z,100010.84
2022-09-23T08:12:22.834Z,100021.31
2022-09-23T08:16:25.411Z,100016.69
2022-09-23T08:20:48.152Z,100020.53
2022-09-23T08:24:52.420Z,100016.38
2022-09-23T08:28:56.415Z,100015.53
2022-09-23T08:32:58.922Z,100013.84
2022-09-23T08:37:02.759Z,100004.84
2022-09-23T08:41:16.260Z,99996.38
2022-09-23T08:45:24.338Z,100005.19
2022-09-23T08:49:33.543Z,99999.72
2022-09-23T08:53:38.291Z,99996.97
2022-09-23T08:58:02.394Z,99997.94
2022-09-23T09:02:18.799Z,99988.81
2022-09-23T09:06:28.045Z,99996.06
2022-09-23T09:10:36.468Z,99996.22
2022-09-23T09:14:47.207Z,99991.59
2022-09-23T09:18:54.737Z,99991.22
2022-09-23T09:23:00.508Z,99993.88
2022-09-23T09:27:11.799Z,99986.44
2022-09-23T09:31:25.176Z,99978.66
2022-09-23T09:35:36.757Z,99972.88
2022-09-23T09:39:39.389Z,99976.22
2022-09-23T09:43:47.503Z,99971.19
2022-09-23T09:47:57.263Z,99972.53
2022-09-23T09:52:14.555Z,99965.00
2022-09-23T09:56:18.436Z,99962.47
2022-09-23T10:00:43.682Z,99949.22
2022-09-23T10:04:46.197Z,99955.75
2022-09-23T10:09:04.872Z,99947.38
2022-09-23T10:13:16.365Z,99937.56
2022-09-23T10:17:22.829Z,99940.63
2022-09-23T10:21:28.812Z,99941.44
2022-09-23T10:25:31.553Z,99935.94
2022-09-23T10:29:39.175Z,99930.84
2022-09-23T10:33:48.700Z,99934.56
2022-09-23T10:37:53.194Z,99923.31
2022-09-23T10:42:21.284Z,99925.69
2022-09-23T10:46:42.229Z,99914.03
2022-09-23T10:50:49.516Z,99908.16
2022-09-23T10:55:06.148Z,99914.94
2022-09-23T10:59:42.983Z,99911.78
2022-09-23T11:04:06.537Z,99901.13
2022-09-23T11:08:20.571Z,99897.19
2022-09-23T11:12:29.614Z,99893.44
2022-09-23T11:16:45.918Z,99894.03
2022-09-23T11:21:00.007Z,99870.88
2022-09-23T11:25:21.135Z,99861.75
2022-09-23T11:29:49.230Z,99858.84
2022-09-23T11:34:05.386Z,99843.34
2022-09-23T11:38:12.731Z,99841.53
2022-09-23T11:42:21.884Z,99839.81
2022-09-23T11:46:32.029Z,99824.69
2022-09-23T11:50:39.076Z,99823.44
2022-09-23T11:54:47.317Z,99816.94
2022-09-23T11:58:59.998Z,99809.66
2022-09-23T12:03:11.135Z,99810.19
2022-09-23T12:07:17.534Z,99811.56
2022-09-23T12:11:28.117Z,99810.44
2022-09-23T12:15:42.747Z,99804.16
2022-09-23T12:20:06.531Z,99800.47
2022-09-23T12:24:45.629Z,99798.97
2022-09-23T12:28:50.810Z,99803.59
2022-09-23T12:33:08.876Z,99792.91
2022-09-23T12:37:11.437Z,99790.25
2022-09-23T12:41:25.354Z,99790.75
2022-09-23T12:45:39.708Z,99781.66
2022-09-23T12:49:44.300Z,99773.84
2022-09-23T12:53:54.566Z,99781.22
2022-09-23T12:57:57.046Z,99770.84
2022-09-23T13:02:19.435Z,99770.25
2022-09-23T13:06:40.506Z,99761.22
2022-09-23T13:10:48.170Z,99763.97
2022-09-23T13:14:55.434Z,99756.56
2022-09-23T13:18:59.478Z,99749.41
2022-09-23T13:23:20.083Z,99749.66
2022-09-23T13:27:29.215Z,99745.81
2022-09-23T13:31:31.963Z,99747.16
2022-09-23T13:35:38.001Z,99738.28
2022-09-23T13:39:41.947Z,99739.13
2022-09-23T13:43:47.095Z,99732.59
2022-09-23T13:47:51.473Z,99714.25
2022-09-23T13:51:55.284Z,99716.75
2022-09-23T13:56:05.144Z,99717.03
2022-09-23T14:00:19.146Z,99713.75
2022-09-23T14:04:25.292Z,99708.00
2022-09-23T14:08:29.092Z,99696.50
2022-09-23T14:12:33.172Z,99699.19
2022-09-23T14:16:40.382Z,99696.19
2022-09-23T14:20:47.404Z,99687.41
2022-09-23T14:24:50.665Z,99694.78
2022-09-23T14:28:54.948Z,99686.47
2022-09-23T14:32:57.800Z,99684.03
2022-09-23T14:37:44.957Z,99696.19
2022-09-23T14:41:47.863Z,99685.47
2022-09-23T14:45:55.093Z,99685.78
2022-09-23T14:50:11.634Z,99687.38
2022-09-23T14:54:36.976Z,99683.88
2022-09-23T14:58:50.970Z,99679.72
2022-09-23T15:03:01.797Z,99674.25
2022-09-23T15:07:09.441Z,99675.84
2022-09-23T15:11:12.917Z,99673.38
2022-09-23T15:15:16.316Z,99668.75
2022-09-23T15:19:21.859Z,99659.66
2022-09-23T15:23:35.374Z,99651.47
2022-09-23T15:27:37.998Z,99648.72
2022-09-23T15:31:40.700Z,99646.50
2022-09-23T15:35:48.432Z,99647.06
2022-09-23T15:39:50.949Z,99650.91
2022-09-23T15:43:53.520Z,99662.09
2022-09-23T15:47:57.125Z,99649.41
2022-09-23T15:52:02.194Z,99657.56
2022-09-23T15:56:06.165Z,99650.34
2022-09-23T16:00:12.314Z,99645.78
2022-09-23T16:04:16.676Z,99645.88
2022-09-23T16:08:21.904Z,99640.25
2022-09-23T16:12:24.506Z,99640.69
2022-09-23T16:16:27.931Z,99630.47
2022-09-23T16:20:31.267Z,99638.31
2022-09-23T16:24:34.993Z,99639.41
2022-09-23T16:28:37.842Z,99636.66
2022-09-23T16:32:40.362Z,99641.75
2022-09-23T16:36:44.456Z,99632.22
2022-09-23T16:40:48.395Z,99631.53
2022-09-23T16:44:50.913Z,99629.50
2022-09-23T16:48:54.762Z,99634.72
2022-09-23T16:52:57.240Z,99638.22
2022-09-23T16:57:01.093Z,99643.13
2022-09-23T17:01:21.253Z,99643.78
2022-09-23T17:05:23.836Z,99646.03
2022-09-23T17:09:28.093Z,99650.72
2022-09-23T17:13:32.969Z,99646.91
2022-09-23T17:17:36.961Z,99645.50
2022-09-23T17:21:40.056Z,99639.78
2022-09-23T17:25:48.429Z,99640.03
2022-09-23T17:29:52.235Z,99633.22
2022-09-23T17:33:55.145Z,99632.09
2022-09-23T17:37:57.595Z,99640.22
2022-09-23T17:42:00.101Z,99643.03
2022-09-23T17:46:06.569Z,99632.75
2022-09-23T17:50:09.607Z,99637.94
2022-09-23T17:54:14.822Z,99641.03
2022-09-23T17:58:18.821Z,99645.41
2022-09-23T18:02:22.787Z,99646.72
2022-09-23T18:06:28.017Z,99645.41
2022-09-23T18:10:31.515Z,99646.97
2022-09-23T18:14:34.046Z,99642.69
2022-09-23T18:18:37.875Z,99644.69
2022-09-23T18:22:40.503Z,99648.66
2022-09-23T18:26:43.488Z,99648.81
2022-09-23T18:30:53.484Z,99641.97
2022-09-23T18:34:57.317Z,99643.75
2022-09-23T18:39:00.618Z,99646.91
2022-09-23T18:43:03.220Z,99642.91
2022-09-23T18:47:05.838Z,99641.91
2022-09-23T18:51:10.538Z,99648.47
2022-09-23T18:55:13.036Z,99649.50
2022-09-23T18:59:19.636Z,99650.94
2022-09-23T19:03:22.159Z,99652.31
2022-09-23T19:07:26.042Z,99643.47
2022-09-23T19:11:28.563Z,99646.06
2022-09-23T19:15:31.031Z,99643.97
2022-09-23T19:19:33.508Z,99646.28
2022-09-23T19:23:37.452Z,99649.06
2022-09-23T19:27:40.142Z,99645.81
2022-09-23T19:31:43.319Z,99639.09
2022-09-23T19:35:47.560Z,99645.66
2022-09-23T19:39:51.455Z,99644.22
2022-09-23T19:43:54.483Z,99636.38
2022-09-23T19:47:57.304Z,99631.78
2022-09-23T19:52:00.353Z,99629.00
2022-09-23T19:56:05.693Z,99627.03
2022-09-23T20:00:09.351Z,99619.97
2022-09-23T20:04:15.552Z,99616.47
2022-09-23T20:08:18.043Z,99619.56
2022-09-23T20:12:21.851Z,99616.19
2022-09-23T20:16:24.389Z,99617.41
2022-09-23T20:20:26.905Z,99611.06
2022-09-23T20:24:29.424Z,99609.53
2022-09-23T20:28:33.214Z,99610.09
2022-09-23T20:32:36.844Z,99604.59
2022-09-23T20:36:41.280Z,99598.66
2022-09-23T20:40:43.994Z,99604.50
2022-09-23T20:44:48.345Z,99590.41
2022-09-23T20:48:51.048Z,99597.22
2022-09-23T20:52:54.040Z,99592.75
2022-09-23T20:56:57.032Z,99585.16
